Time;durP1;ratioP1;P1;durP2;ratioP2;P2;SDS_P1;SDS_P2;PMS_P1;PMS_P2;Temp;Humidity;BMP_temperature;BMP_pressure;BME280_temperature;BME280_humidity;BME280_pressure;Samples;Min_cycle;Max_cycle;Signal;HPM_P1;HPM_P2
2022/07/21 00:00:04;;;;;;;0.10;0.10;;;;;;;16.88;100.00;100325.22;7392884;19;20007;-56
2022/07/21 00:02:30;;;;;;;0.35;0.35;;;;;;;16.88;100.00;100321.63;7388634;19;20014;-55
2022/07/21 00:04:57;;;;;;;2.00;0.63;;;;;;;16.89;100.00;100323.19;7389529;19;20010;-56
2022/07/21 00:07:23;;;;;;;3.53;0.57;;;;;;;16.90;100.00;100330.34;7391932;19;20014;-56
2022/07/21 00:09:49;;;;;;;1.98;0.63;;;;;;;16.90;100.00;100327.53;7389709;19;20049;-56
2022/07/21 00:12:15;;;;;;;4.65;0.85;;;;;;;16.89;100.00;100321.13;7389874;19;20467;-56
2022/07/21 00:14:41;;;;;;;0.25;0.10;;;;;;;16.91;100.00;100323.44;7388790;19;20080;-56
2022/07/21 00:17:08;;;;;;;0.28;0.00;;;;;;;16.93;100.00;100326.53;7393088;19;20771;-56
2022/07/21 00:19:34;;;;;;;4.15;0.30;;;;;;;16.91;100.00;100324.22;7389914;19;20470;-56
2022/07/21 00:22:00;;;;;;;8.25;0.38;;;;;;;16.90;100.00;100322.69;7388945;19;20014;-56
2022/07/21 00:24:26;;;;;;;1.45;0.20;;;;;;;16.90;100.00;100330.34;7393368;19;20055;-56
2022/07/21 00:26:52;;;;;;;8.63;0.55;;;;;;;16.88;100.00;100332.88;7391924;19;20375;-56
2022/07/21 00:29:19;;;;;;;0.45;0.28;;;;;;;16.86;100.00;100327.00;7388164;19;20021;-56
2022/07/21 00:31:45;;;;;;;1.10;0.38;;;;;;;16.85;100.00;100336.75;7389268;19;20075;-56
2022/07/21 00:34:11;;;;;;;0.35;0.10;;;;;;;16.85;100.00;100343.13;7390160;19;20021;-56
2022/07/21 00:36:37;;;;;;;1.15;0.52;;;;;;;16.86;100.00;100346.69;7392725;19;20403;-56
2022/07/21 00:39:03;;;;;;;3.05;0.80;;;;;;;16.85;100.00;100336.75;7390696;19;20359;-56
2022/07/21 00:41:29;;;;;;;0.30;0.10;;;;;;;16.86;100.00;100339.03;7389433;19;20930;-56
2022/07/21 00:43:55;;;;;;;0.95;0.30;;;;;;;16.88;100.00;100344.16;7389121;19;20030;-56
2022/07/21 00:46:22;;;;;;;3.30;0.30;;;;;;;16.83;100.00;100339.28;7390935;19;20033;-56
2022/07/21 00:48:48;;;;;;;0.10;0.10;;;;;;;16.84;100.00;100344.41;7389546;19;20026;-56
2022/07/21 00:51:14;;;;;;;0.20;0.20;;;;;;;16.85;100.00;100348.75;7391872;19;20007;-56
2022/07/21 00:53:40;;;;;;;0.60;0.40;;;;;;;16.84;100.00;100343.63;7391621;19;20031;-56
2022/07/21 00:56:07;;;;;;;0.57;0.13;;;;;;;16.82;100.00;100354.63;7393375;19;20010;-56
2022/07/21 00:58:33;;;;;;;4.72;0.80;;;;;;;16.83;100.00;100344.91;7389266;19;20080;-56
2022/07/21 01:00:59;;;;;;;1.75;0.30;;;;;;;16.85;100.00;100359.25;7390836;19;20011;-55
2022/07/21 01:03:26;;;;;;;3.38;0.43;;;;;;;16.84;100.00;100357.69;7387290;19;20010;-55
2022/07/21 01:05:52;;;;;;;2.72;1.13;;;;;;;16.84;100.00;100354.88;7388118;19;20011;-56
2022/07/21 01:08:18;;;;;;;9.40;0.55;;;;;;;16.83;100.00;100361.78;7388481;19;20007;-56
2022/07/21 01:10:45;;;;;;;0.90;0.35;;;;;;;16.79;100.00;100355.63;7388754;19;20006;-56
2022/07/21 01:13:11;;;;;;;0.57;0.45;;;;;;;16.79;100.00;100362.03;7393074;19;20010;-56
2022/07/21 01:15:37;;;;;;;0.20;0.10;;;;;;;16.78;100.00;100365.34;7397650;19;20010;-56
2022/07/21 01:18:04;;;;;;;2.10;0.10;;;;;;;16.76;100.00;100365.09;7397050;19;20045;-56
2022/07/21 01:20:35;;;;;;;1.75;0.57;;;;;;;16.74;100.00;100364.84;7395719;19;20759;-56
2022/07/21 01:23:02;;;;;;;0.63;0.55;;;;;;;16.75;100.00;100372.75;7396126;19;20011;-56
2022/07/21 01:25:28;;;;;;;0.20;0.10;;;;;;;16.76;100.00;100362.28;7396185;19;20015;-56
2022/07/21 01:27:55;;;;;;;0.10;0.10;;;;;;;16.75;100.00;100369.16;7395370;19;20344;-56
2022/07/21 01:30:21;;;;;;;4.55;0.30;;;;;;;16.76;100.00;100360.25;7396175;19;20456;-56
2022/07/21 01:32:47;;;;;;;4.90;0.73;;;;;;;16.74;100.00;100365.56;7395911;19;20018;-56
2022/07/21 01:35:15;;;;;;;3.15;0.65;;;;;;;16.72;100.00;100361.75;7395424;19;20018;-56
2022/07/21 01:37:44;;;;;;;11.50;0.20;;;;;;;16.71;100.00;100351.75;7395434;19;20017;-56
2022/07/21 01:42:57;;;;;;;4.93;0.40;;;;;;;16.68;100.00;100359.94;7395259;19;20036;-56
2022/07/21 01:45:23;;;;;;;0.20;0.20;;;;;;;16.62;100.00;100349.94;7395289;19;20566;-56
2022/07/21 01:47:50;;;;;;;1.58;0.20;;;;;;;16.62;100.00;100370.41;7395600;19;20460;-56
2022/07/21 01:50:18;;;;;;;3.03;0.40;;;;;;;16.61;100.00;100366.03;7394231;19;20032;-56
2022/07/21 01:52:45;;;;;;;3.72;0.57;;;;;;;16.59;100.00;100365.78;7394555;19;20024;-57
2022/07/21 01:55:11;;;;;;;1.10;0.10;;;;;;;16.59;100.00;100362.19;7393919;19;20045;-56
2022/07/21 01:57:37;;;;;;;0.30;0.28;;;;;;;16.58;100.00;100364.25;7394282;19;20035;-56
2022/07/21 02:00:04;;;;;;;0.63;0.17;;;;;;;16.58;100.00;100364.25;7397033;19;20092;-56
2022/07/21 02:02:32;;;;;;;4.00;0.45;;;;;;;16.56;100.00;100369.63;7394345;19;20015;-56
2022/07/21 02:04:58;;;;;;;0.28;0.17;;;;;;;16.56;100.00;100371.66;7393595;19;20034;-56
2022/07/21 02:07:25;;;;;;;2.40;0.20;;;;;;;16.52;100.00;100357.81;7394394;19;20015;-56
2022/07/21 02:09:51;;;;;;;1.10;0.45;;;;;;;16.49;100.00;100370.06;7394606;19;20070;-57
2022/07/21 02:12:17;;;;;;;0.65;0.30;;;;;;;16.46;100.00;100368.25;7393499;19;20021;-56
2022/07/21 02:14:43;;;;;;;0.17;0.10;;;;;;;16.49;100.00;100367.25;7393627;19;20018;-56
2022/07/21 02:17:09;;;;;;;0.65;0.40;;;;;;;16.47;100.00;100375.41;7397810;19;20021;-56
2022/07/21 02:19:35;;;;;;;0.40;0.10;;;;;;;16.49;100.00;100367.25;7394225;19;20011;-56
2022/07/21 02:22:02;;;;;;;0.15;0.05;;;;;;;16.49;100.00;100372.88;7393769;19;20014;-56
2022/07/21 02:24:28;;;;;;;14.13;0.68;;;;;;;16.49;100.00;100381.31;7397336;19;20030;-56
2022/07/21 02:26:54;;;;;;;0.85;0.40;;;;;;;16.45;100.00;100380.78;7395577;19;20022;-56
2022/07/21 02:29:20;;;;;;;0.20;0.10;;;;;;;16.45;100.00;100383.59;7393952;19;20010;-56
2022/07/21 02:31:46;;;;;;;0.38;0.38;;;;;;;16.47;100.00;100383.06;7393925;19;20083;-56
2022/07/21 02:34:13;;;;;;;1.13;0.40;;;;;;;16.44;100.00;100387.66;7392619;19;20019;-56
2022/07/21 02:36:39;;;;;;;1.10;0.25;;;;;;;16.45;100.00;100382.81;7395250;19;20019;-56
2022/07/21 02:39:05;;;;;;;5.97;0.30;;;;;;;16.44;100.00;100381.25;7393415;19;20015;-56
2022/07/21 02:41:31;;;;;;;0.57;0.20;;;;;;;16.45;100.00;100382.81;7391380;19;20011;-56
2022/07/21 02:43:57;;;;;;;1.17;0.52;;;;;;;16.43;100.00;100391.75;7393203;19;20010;-56
2022/07/21 02:46:24;;;;;;;2.60;0.28;;;;;;;16.43;100.00;100386.13;7394669;19;20014;-56
2022/07/21 02:48:50;;;;;;;4.20;0.40;;;;;;;16.40;100.00;100387.13;7392789;19;20769;-56
2022/07/21 02:51:16;;;;;;;0.45;0.32;;;;;;;16.39;100.00;100382.78;7393445;19;20437;-56
2022/07/21 02:53:42;;;;;;;3.40;0.52;;;;;;;16.40;100.00;100387.13;7392486;19;20046;-56
2022/07/21 02:56:08;;;;;;;0.10;0.00;;;;;;;16.40;100.00;100380.72;7394431;19;20029;-56
2022/07/21 02:58:34;;;;;;;0.30;0.30;;;;;;;16.40;100.00;100386.34;7393064;19;20348;-56
2022/07/21 03:01:05;;;;;;;0.15;0.15;;;;;;;16.37;100.00;100388.13;7397014;19;20018;-56
2022/07/21 03:03:33;;;;;;;1.45;0.38;;;;;;;16.38;100.00;100377.66;7391826;19;20471;-56
2022/07/21 03:06:00;;;;;;;5.68;0.35;;;;;;;16.39;100.00;100379.22;7393300;19;20069;-56
2022/07/21 03:08:28;;;;;;;2.70;0.30;;;;;;;16.36;100.00;100375.34;7392896;19;20014;-57
2022/07/21 03:10:55;;;;;;;0.65;0.10;;;;;;;16.34;100.00;100383.53;7389376;19;20011;-57
2022/07/21 03:13:22;;;;;;;2.08;0.32;;;;;;;16.35;100.00;100381.50;7390869;19;20011;-56
2022/07/21 03:15:48;;;;;;;5.78;0.22;;;;;;;16.37;100.00;100385.31;7393047;19;20015;-56
2022/07/21 03:18:15;;;;;;;4.15;1.27;;;;;;;16.36;100.00;100375.34;7391910;19;20022;-57
2022/07/21 03:20:42;;;;;;;0.20;0.10;;;;;;;16.35;100.00;100385.03;7392434;19;20008;-56
2022/07/21 03:23:09;;;;;;;1.02;0.50;;;;;;;16.35;100.00;100379.44;7394062;19;20006;-56
2022/07/21 03:25:35;;;;;;;4.18;0.22;;;;;;;16.33;100.00;100381.97;7392953;19;20102;-56
2022/07/21 03:28:02;;;;;;;0.40;0.30;;;;;;;16.33;100.00;100381.97;7392318;19;20021;-56
2022/07/21 03:30:28;;;;;;;0.93;0.40;;;;;;;16.31;100.00;100381.72;7390828;19;20132;-56
2022/07/21 03:32:55;;;;;;;0.30;0.20;;;;;;;16.34;100.00;100377.91;7391966;19;20032;-56
2022/07/21 03:35:21;;;;;;;0.20;0.20;;;;;;;16.33;100.00;100381.97;7391701;19;20007;-56
2022/07/21 03:37:56;;;;;;;0.57;0.20;;;;;;;16.33;100.00;100387.59;7392352;19;20468;-56
2022/07/21 03:40:25;;;;;;;3.40;0.20;;;;;;;16.31;100.00;100384.50;7392183;19;20011;-56
2022/07/21 03:42:57;;;;;;;0.52;0.20;;;;;;;16.29;100.00;100386.28;7391129;19;20010;-56
2022/07/21 03:45:24;;;;;;;0.17;0.17;;;;;;;16.29;100.00;100387.06;7391944;19;20074;-57
2022/07/21 03:47:51;;;;;;;2.00;0.20;;;;;;;16.28;100.00;100382.72;7392181;19;20018;-56
2022/07/21 03:50:18;;;;;;;0.13;0.13;;;;;;;16.29;100.00;100387.06;7391215;19;20357;-57
2022/07/21 03:52:45;;;;;;;0.10;0.10;;;;;;;16.25;100.00;100392.16;7391280;19;20010;-56
2022/07/21 03:55:14;;;;;;;0.90;0.55;;;;;;;16.26;100.00;100392.94;7390109;19;20007;-56
2022/07/21 03:57:50;;;;;;;1.05;0.47;;;;;;;16.27;100.00;100395.22;7389738;19;20011;-56
2022/07/21 04:00:28;;;;;;;6.13;0.85;;;;;;;16.26;100.00;100396.50;7393908;19;20007;-56
2022/07/21 04:02:55;;;;;;;1.42;0.38;;;;;;;16.23;100.00;100400.31;7390661;19;20014;-56
2022/07/21 04:05:22;;;;;;;4.20;0.30;;;;;;;16.24;100.00;100404.66;7389639;19;20039;-56
2022/07/21 04:07:50;;;;;;;0.52;0.20;;;;;;;16.23;100.00;100400.31;7389156;19;20011;-56
2022/07/21 04:10:19;;;;;;;0.25;0.25;;;;;;;16.22;100.00;100404.38;7390516;19;20706;-56
2022/07/21 04:12:45;;;;;;;0.50;0.10;;;;;;;16.21;100.00;100399.28;7391027;19;20011;-56
2022/07/21 04:15:11;;;;;;;1.27;0.30;;;;;;;16.19;100.00;100405.41;7389259;19;20071;-56
2022/07/21 04:17:39;;;;;;;0.77;0.30;;;;;;;16.20;100.00;100401.31;7390401;19;20021;-56
2022/07/21 04:20:07;;;;;;;1.45;0.57;;;;;;;16.21;100.00;100396.47;7390675;19;20017;-56
2022/07/21 04:22:33;;;;;;;0.52;0.10;;;;;;;16.19;100.00;100405.41;7389586;19;20041;-56
2022/07/21 04:25:00;;;;;;;0.38;0.10;;;;;;;16.18;100.00;100409.47;7388439;19;20504;-56
2022/07/21 04:27:27;;;;;;;0.98;0.32;;;;;;;16.16;100.00;100412.00;7392923;19;20006;-56
2022/07/21 04:29:54;;;;;;;1.45;0.10;;;;;;;16.15;100.00;100413.31;7389750;19;20011;-56
2022/07/21 04:32:20;;;;;;;0.52;0.38;;;;;;;16.15;100.00;100413.31;7388600;19;20023;-57
2022/07/21 04:34:46;;;;;;;1.85;0.40;;;;;;;16.15;100.00;100413.31;7388691;19;20014;-56
2022/07/21 04:37:12;;;;;;;1.75;0.98;;;;;;;16.15;100.00;100418.16;7393391;19;20155;-56
2022/07/21 04:39:38;;;;;;;0.30;0.00;;;;;;;16.16;100.00;100425.28;7389807;19;20019;-56
2022/07/21 04:42:05;;;;;;;0.30;0.30;;;;;;;16.14;100.00;100425.03;7389774;19;20010;-56
2022/07/21 04:44:31;;;;;;;0.68;0.20;;;;;;;16.13;100.00;100418.66;7389790;19;20378;-56
2022/07/21 04:46:57;;;;;;;1.98;0.20;;;;;;;16.10;100.00;100425.25;7388906;19;20027;-56
2022/07/21 04:49:23;;;;;;;0.77;0.28;;;;;;;16.09;100.00;100425.78;7388963;19;20018;-56
2022/07/21 04:51:49;;;;;;;0.30;0.17;;;;;;;16.11;100.00;100432.44;7390069;19;20018;-56
2022/07/21 04:54:16;;;;;;;5.15;0.20;;;;;;;16.08;100.00;100427.03;7393848;19;20021;-56
2022/07/21 04:56:43;;;;;;;0.75;0.38;;;;;;;16.09;100.00;100431.38;7391798;19;20469;-56
2022/07/21 04:59:09;;;;;;;0.20;0.10;;;;;;;16.08;100.00;100421.41;7390462;19;20118;-56
2022/07/21 05:01:37;;;;;;;0.50;0.22;;;;;;;16.06;100.00;100424.72;7388430;19;20029;-56
2022/07/21 05:04:03;;;;;;;4.28;0.47;;;;;;;16.06;100.00;100430.34;7387181;19;20052;-56
2022/07/21 05:06:29;;;;;;;0.10;0.10;;;;;;;16.09;100.00;100434.94;7390348;19;20375;-56
2022/07/21 05:08:56;;;;;;;0.35;0.30;;;;;;;16.08;100.00;100433.41;7389240;19;20014;-56
2022/07/21 05:11:23;;;;;;;0.40;0.20;;;;;;;16.06;100.00;100435.97;7388650;19;20019;-57
2022/07/21 05:13:49;;;;;;;0.25;0.10;;;;;;;16.07;100.00;100434.69;7389009;19;20100;-56
2022/07/21 05:16:15;;;;;;;3.83;0.38;;;;;;;16.08;100.00;100432.66;7391065;19;20045;-56
2022/07/21 05:18:41;;;;;;;1.15;0.32;;;;;;;16.05;100.00;100442.84;7387736;19;20031;-56
2022/07/21 05:21:07;;;;;;;0.20;0.10;;;;;;;16.08;100.00;100441.84;7387333;19;20375;-56
2022/07/21 05:23:34;;;;;;;1.35;0.47;;;;;;;16.08;100.00;100439.03;7390109;19;20124;-56
2022/07/21 05:26:00;;;;;;;6.55;0.35;;;;;;;16.09;100.00;100446.19;7389117;19;20603;-56
2022/07/21 05:28:29;;;;;;;0.10;0.00;;;;;;;16.09;100.00;100446.19;7387742;19;20049;-56
2022/07/21 05:30:56;;;;;;;1.35;0.85;;;;;;;16.10;100.00;100447.75;7388412;19;20018;-56
2022/07/21 05:33:22;;;;;;;0.10;0.10;;;;;;;16.10;100.00;100453.38;7389389;19;20035;-56
2022/07/21 05:35:48;;;;;;;0.20;0.20;;;;;;;16.06;100.00;100452.81;7387432;19;20018;-56
2022/07/21 05:38:14;;;;;;;0.17;0.10;;;;;;;16.11;100.00;100443.69;7388280;19;20035;-57
2022/07/21 05:40:41;;;;;;;0.50;0.22;;;;;;;16.15;100.00;100454.69;7387027;19;20006;-56
2022/07/21 05:43:07;;;;;;;0.10;0.05;;;;;;;16.14;100.00;100451.09;7387511;19;20633;-56
2022/07/21 05:45:33;;;;;;;0.20;0.20;;;;;;;16.16;100.00;100462.59;7387940;19;20091;-56
2022/07/21 05:47:59;;;;;;;6.85;0.25;;;;;;;16.14;100.00;100453.91;7391625;19;20377;-56
2022/07/21 05:50:25;;;;;;;0.52;0.10;;;;;;;16.17;100.00;100469.00;7389391;19;20011;-57
2022/07/21 05:52:52;;;;;;;0.30;0.10;;;;;;;16.17;100.00;100463.38;7389444;19;20018;-56
2022/07/21 05:55:18;;;;;;;3.42;0.32;;;;;;;16.20;100.00;100470.81;7389422;19;20034;-56
2022/07/21 05:57:44;;;;;;;5.90;0.28;;;;;;;16.22;100.00;100471.84;7390936;19;20019;-56
2022/07/21 06:00:10;;;;;;;0.10;0.08;;;;;;;16.23;100.00;100462.16;7393284;19;20052;-56
2022/07/21 06:02:37;;;;;;;0.10;0.10;;;;;;;16.25;100.00;100465.22;7395590;19;20038;-56
2022/07/21 06:05:03;;;;;;;1.27;0.10;;;;;;;16.27;100.00;100462.69;7394782;19;20478;-56
2022/07/21 06:07:29;;;;;;;0.55;0.10;;;;;;;16.29;100.00;100467.78;7396799;19;20014;-56
2022/07/21 06:09:55;;;;;;;1.05;0.10;;;;;;;16.27;100.00;100473.94;7394521;19;20042;-56
2022/07/21 06:12:21;;;;;;;5.35;0.25;;;;;;;16.30;100.00;100472.94;7393439;19;20949;-56
2022/07/21 06:14:49;;;;;;;0.20;0.17;;;;;;;16.27;100.00;100479.56;7394396;19;20462;-56
2022/07/21 06:17:15;;;;;;;0.10;0.10;;;;;;;16.28;100.00;100485.94;7397539;19;20041;-56
2022/07/21 06:19:41;;;;;;;4.63;0.30;;;;;;;16.22;100.00;100485.88;7393819;19;20026;-56
2022/07/21 06:22:08;;;;;;;0.65;0.10;;;;;;;16.20;100.00;100485.63;7394307;19;20780;-56
2022/07/21 06:24:34;;;;;;;1.40;0.20;;;;;;;16.24;100.00;100491.78;7397925;19;20046;-56
2022/07/21 06:27:00;;;;;;;0.30;0.30;;;;;;;16.26;100.00;100486.47;7393389;19;20018;-56
2022/07/21 06:29:27;;;;;;;3.30;0.20;;;;;;;16.25;100.00;100490.53;7394266;19;20377;-56
2022/07/21 06:31:53;;;;;;;0.28;0.10;;;;;;;16.27;100.00;100490.78;7394703;19;20013;-56
2022/07/21 06:34:19;;;;;;;0.43;0.13;;;;;;;16.29;100.00;100493.88;7391935;19;20558;-57
2022/07/21 06:36:45;;;;;;;0.55;0.17;;;;;;;16.29;100.00;100496.69;7396580;19;20114;-57
2022/07/21 06:39:12;;;;;;;0.75;0.32;;;;;;;16.31;100.00;100511.00;7392720;19;20019;-56
2022/07/21 06:41:39;;;;;;;2.47;0.22;;;;;;;16.31;100.00;100508.19;7391570;19;20031;-56
2022/07/21 06:44:12;;;;;;;2.85;0.30;;;;;;;16.28;100.00;100508.44;7391312;19;20010;-56
2022/07/21 06:46:38;;;;;;;0.57;0.20;;;;;;;16.29;100.00;100516.34;7390710;19;20014;-56
2022/07/21 06:49:05;;;;;;;0.10;0.00;;;;;;;16.29;100.00;100521.97;7392781;19;20041;-57
2022/07/21 06:51:31;;;;;;;0.20;0.10;;;;;;;16.28;100.00;100516.88;7393838;19;20011;-56
2022/07/21 06:53:57;;;;;;;0.40;0.10;;;;;;;16.27;100.00;100516.09;7396399;19;20014;-56
2022/07/21 06:56:23;;;;;;;0.65;0.15;;;;;;;16.26;100.00;100520.19;7395378;19;20090;-56
2022/07/21 06:58:49;;;;;;;0.45;0.08;;;;;;;16.33;100.00;100518.97;7393934;19;20014;-57
2022/07/21 07:01:18;;;;;;;2.17;0.40;;;;;;;16.36;100.00;100515.91;7393447;19;20011;-57
2022/07/21 07:03:44;;;;;;;0.40;0.10;;;;;;;16.38;100.00;100521.81;7393698;19;20082;-56
2022/07/21 07:06:11;;;;;;;0.20;0.20;;;;;;;16.39;100.00;100520.53;7393164;19;20030;-57
2022/07/21 07:08:38;;;;;;;0.90;0.10;;;;;;;16.40;100.00;100521.28;7392118;19;20010;-57
2022/07/21 07:11:05;;;;;;;2.00;0.17;;;;;;;16.41;100.00;100529.25;7391964;19;20026;-57
2022/07/21 07:13:32;;;;;;;0.40;0.20;;;;;;;16.41;100.00;100532.06;7391302;19;20010;-56
2022/07/21 07:15:58;;;;;;;0.05;0.03;;;;;;;16.43;100.00;100532.31;7393257;19;20019;-56
2022/07/21 07:18:25;;;;;;;0.10;0.10;;;;;;;16.44;100.00;100533.84;7392904;19;20070;-56
2022/07/21 07:20:52;;;;;;;0.57;0.30;;;;;;;16.46;100.00;100531.31;7392820;19;20007;-56
2022/07/21 07:23:18;;;;;;;0.30;0.10;;;;;;;16.52;100.00;100532.16;7394190;19;20015;-56
2022/07/21 07:25:44;;;;;;;0.50;0.08;;;;;;;16.59;100.00;100528.88;7392712;19;20018;-56
2022/07/21 07:28:10;;;;;;;0.15;0.08;;;;;;;16.59;100.00;100533.72;7391963;19;20010;-56
2022/07/21 07:30:37;;;;;;;0.10;0.00;;;;;;;16.59;100.00;100534.50;7390455;19;20424;-56
2022/07/21 07:33:03;;;;;;;0.32;0.00;;;;;;;16.57;100.00;100542.69;7391105;19;20027;-57
2022/07/21 07:35:29;;;;;;;0.10;0.00;;;;;;;16.54;100.00;100549.31;7391876;19;20006;-57
2022/07/21 07:37:56;;;;;;;0.10;0.00;;;;;;;16.53;100.00;100544.94;7392479;19;20010;-57
2022/07/21 07:40:23;;;;;;;0.10;0.10;;;;;;;16.56;100.00;100552.41;7392043;19;20074;-57
2022/07/21 07:42:50;;;;;;;0.30;0.05;;;;;;;16.57;100.00;100551.13;7391050;19;20414;-57
2022/07/21 07:45:16;;;;;;;2.28;0.20;;;;;;;16.54;100.00;100563.38;7390804;19;20018;-57
2022/07/21 07:47:43;;;;;;;0.52;0.20;;;;;;;16.53;100.00;100561.81;7390211;19;20034;-57
2022/07/21 07:50:12;;;;;;;1.27;0.15;;;;;;;16.53;100.00;100558.22;7389837;19;20488;-57
2022/07/21 07:52:39;;;;;;;0.63;0.30;;;;;;;16.54;100.00;100560.56;7391504;19;20031;-57
2022/07/21 07:55:10;;;;;;;1.20;0.22;;;;;;;16.53;100.00;100561.81;7390142;19;20046;-57
2022/07/21 07:57:37;;;;;;;2.70;0.30;;;;;;;16.51;100.00;100570.00;7390454;19;20458;-57
2022/07/21 08:00:07;;;;;;;1.55;0.25;;;;;;;16.52;100.00;100560.25;7393637;19;20007;-57
2022/07/21 08:02:38;;;;;;;1.45;0.47;;;;;;;16.56;100.00;100569.28;7390456;19;20718;-57
2022/07/21 08:05:05;;;;;;;1.17;0.35;;;;;;;16.53;100.00;100564.63;7390858;19;20017;-57
2022/07/21 08:07:31;;;;;;;10.50;0.38;;;;;;;16.51;100.00;100572.81;7392763;19;20010;-57
2022/07/21 08:09:57;;;;;;;0.38;0.15;;;;;;;16.54;100.00;100582.28;7390840;19;20464;-57
2022/07/21 08:12:25;;;;;;;2.45;0.30;;;;;;;16.51;100.00;100578.44;7389637;19;20025;-57
2022/07/21 08:14:51;;;;;;;0.43;0.30;;;;;;;16.53;100.00;100584.31;7391294;19;20017;-57
2022/07/21 08:17:17;;;;;;;0.10;0.10;;;;;;;16.51;100.00;100586.84;7395388;19;20087;-53
2022/07/21 08:19:44;;;;;;;0.10;0.00;;;;;;;16.57;100.00;100587.66;7388083;19;20066;-53
2022/07/21 08:22:10;;;;;;;0.50;0.25;;;;;;;16.64;100.00;100584.41;7385951;19;20010;-54
2022/07/21 08:24:36;;;;;;;3.20;0.30;;;;;;;16.72;100.00;100584.72;7392912;19;20010;-54
2022/07/21 08:27:02;;;;;;;0.10;0.10;;;;;;;16.81;100.00;100584.53;7391601;19;20095;-53
2022/07/21 08:29:29;;;;;;;0.52;0.10;;;;;;;16.85;100.00;100581.50;7391491;19;20074;-54
2022/07/21 08:31:55;;;;;;;1.02;0.15;;;;;;;16.88;100.00;100588.91;7390602;19;20074;-54
2022/07/21 08:34:21;;;;;;;9.05;0.43;;;;;;;16.94;100.00;100582.06;7389850;19;20039;-53
2022/07/21 08:36:47;;;;;;;2.80;0.20;;;;;;;17.01;100.00;100584.41;7393522;19;20017;-53
2022/07/21 08:39:13;;;;;;;2.08;0.32;;;;;;;17.03;100.00;100579.03;7391093;19;20022;-53
2022/07/21 08:41:40;;;;;;;3.85;0.10;;;;;;;17.02;100.00;100583.13;7392238;19;20014;-53
2022/07/21 08:44:10;;;;;;;0.35;0.17;;;;;;;17.05;100.00;100581.34;7390155;19;20035;-53
2022/07/21 08:46:40;;;;;;;0.10;0.10;;;;;;;17.04;100.00;100579.81;7394099;19;20011;-53
2022/07/21 08:49:09;;;;;;;8.05;0.95;;;;;;;17.00;100.00;100582.09;7391598;19;20084;-53
2022/07/21 08:51:35;;;;;;;0.68;0.10;;;;;;;16.95;100.00;100588.47;7390892;19;20010;-54
2022/07/21 08:54:03;;;;;;;0.10;0.00;;;;;;;16.84;100.00;100591.19;7394026;19;20547;-54
2022/07/21 08:56:29;;;;;;;0.40;0.17;;;;;;;16.78;100.00;100584.75;7392094;19;20010;-54
2022/07/21 08:58:55;;;;;;;5.55;0.40;;;;;;;16.71;100.00;100590.84;7390570;19;20027;-54
2022/07/21 09:01:23;;;;;;;0.10;0.10;;;;;;;16.70;100.00;100600.56;7389757;19;20578;-53
2022/07/21 09:03:51;;;;;;;3.85;0.17;;;;;;;16.72;100.00;100603.66;7387879;19;20457;-53
2022/07/21 09:06:18;;;;;;;3.55;0.30;;;;;;;16.67;100.00;100597.44;7390288;19;20074;-53
2022/07/21 09:08:47;;;;;;;3.65;0.20;;;;;;;16.66;100.00;100595.94;7388674;19;20032;-53
2022/07/21 09:11:17;;;;;;;2.58;0.30;;;;;;;16.63;100.00;100596.16;7389185;19;20014;-53
2022/07/21 09:13:46;;;;;;;1.38;0.20;;;;;;;16.62;100.00;100600.22;7389327;19;20011;-53
2022/07/21 09:16:13;;;;;;;1.00;0.30;;;;;;;16.53;100.00;100609.63;7390489;19;20074;-53
2022/07/21 09:18:50;;;;;;;6.47;0.50;;;;;;;16.43;100.00;100602.63;7388152;19;20443;-53
2022/07/21 09:21:19;;;;;;;1.20;0.30;;;;;;;16.39;100.00;100604.88;7388324;19;20089;-54
2022/07/21 09:23:46;;;;;;;1.20;0.32;;;;;;;16.41;100.00;100605.16;7391482;19;20007;-54
2022/07/21 09:26:13;;;;;;;0.20;0.10;;;;;;;16.48;100.00;100601.13;7391927;19;20081;-54
2022/07/21 09:28:40;;;;;;;2.10;0.47;;;;;;;16.53;100.00;100604.00;7390762;19;20014;-55
2022/07/21 09:31:09;;;;;;;2.08;0.43;;;;;;;16.61;100.00;100607.16;7391220;19;20018;-55
2022/07/21 09:33:38;;;;;;;0.17;0.10;;;;;;;16.67;100.00;100605.88;7388969;19;20352;-56
2022/07/21 09:36:13;;;;;;;0.10;0.03;;;;;;;16.72;100.00;100607.22;7397871;19;20014;-56
2022/07/21 09:38:48;;;;;;;0.25;0.10;;;;;;;16.78;100.00;100610.09;7396656;19;20010;-56
2022/07/21 09:41:20;;;;;;;0.10;0.00;;;;;;;16.85;100.00;100601.94;7395292;19;20041;-56
2022/07/21 09:43:49;;;;;;;0.55;0.17;;;;;;;16.92;100.00;100609.16;7395417;19;20070;-56
2022/07/21 09:46:21;;;;;;;0.60;0.20;;;;;;;17.02;100.00;100611.25;7396303;19;20550;-56
2022/07/21 09:48:49;;;;;;;0.45;0.20;;;;;;;17.17;100.00;100611.13;7394600;19;20018;-56
2022/07/21 09:51:23;;;;;;;0.10;0.00;;;;;;;17.23;100.00;100623.97;7395742;19;20030;-56
2022/07/21 09:54:05;;;;;;;0.65;0.20;;;;;;;17.30;100.00;100619.91;7397834;19;20011;-56
2022/07/21 09:56:34;;;;;;;0.28;0.10;;;;;;;17.37;100.00;100611.72;7397889;19;20039;-56
2022/07/21 09:59:01;;;;;;;0.85;0.13;;;;;;;17.47;100.00;100617.16;7394591;19;20049;-56
2022/07/21 10:01:29;;;;;;;0.30;0.20;;;;;;;17.50;100.00;100616.94;7396052;19;20015;-55
2022/07/21 10:03:56;;;;;;;2.45;0.00;;;;;;;17.55;100.00;100619.03;7396343;19;20014;-56
2022/07/21 10:06:28;;;;;;;0.32;0.22;;;;;;;17.55;100.00;100619.03;7397302;19;20017;-56
2022/07/21 10:08:59;;;;;;;0.73;0.10;;;;;;;17.48;100.00;100625.09;7396103;19;20740;-56
2022/07/21 10:11:26;;;;;;;0.10;0.10;;;;;;;17.49;100.00;100621.03;7395099;19;20026;-56
2022/07/21 10:13:53;;;;;;;0.65;0.00;;;;;;;17.47;100.00;100628.44;7395126;19;20037;-56
2022/07/21 10:16:20;;;;;;;1.45;0.20;;;;;;;17.40;100.00;100621.22;7396203;19;20074;-56
2022/07/21 10:19:20;;;;;;;0.65;0.22;;;;;;;17.38;100.00;100623.78;7392650;19;20025;-56
2022/07/21 10:22:09;;;;;;;3.63;0.20;;;;;;;17.43;100.00;100623.78;7394459;19;20018;-56
2022/07/21 10:24:36;;;;;;;0.80;0.20;;;;;;;17.64;100.00;100624.44;7398983;19;20448;-57
2022/07/21 10:27:08;;;;;;;0.10;0.10;;;;;;;17.93;100.00;100621.19;7393918;19;20042;-59
2022/07/21 10:29:54;;;;;;;0.13;0.10;;;;;;;18.29;100.00;100607.44;7393497;19;20010;-59
2022/07/21 10:32:24;;;;;;;0.08;0.00;;;;;;;18.60;100.00;100618.53;7391484;19;20014;-59
2022/07/21 10:34:51;;;;;;;1.17;0.22;;;;;;;18.76;100.00;100612.13;7392575;19;20028;-59
2022/07/21 10:37:36;;;;;;;7.68;0.20;;;;;;;18.88;100.00;100619.31;7398243;19;20011;-59
2022/07/21 10:40:03;;;;;;;1.50;0.20;;;;;;;18.94;100.00;100617.25;7394357;19;20006;-59
2022/07/21 10:42:29;;;;;;;0.10;0.00;;;;;;;18.92;100.00;100611.34;7394383;19;20600;-59
2022/07/21 10:44:56;;;;;;;0.70;0.10;;;;;;;18.91;100.00;100615.44;7392384;19;20007;-58
2022/07/21 10:47:28;;;;;;;0.85;0.10;;;;;;;18.85;100.00;100614.69;7396223;19;20014;-59
2022/07/21 10:49:54;;;;;;;1.48;0.00;;;;;;;18.85;100.00;100609.81;7393509;19;20010;-58
2022/07/21 10:52:35;;;;;;;4.47;0.10;;;;;;;18.81;100.00;100614.16;7393553;19;20033;-59
2022/07/21 10:55:11;;;;;;;0.68;0.10;;;;;;;18.72;100.00;100617.25;7393485;19;20017;-59
2022/07/21 10:57:41;;;;;;;0.10;0.10;;;;;;;18.61;100.00;100617.25;7391495;19;20011;-59
2022/07/21 11:00:24;;;;;;;0.30;0.20;;;;;;;18.52;100.00;100623.91;7395542;19;20475;-59
2022/07/21 11:03:02;;;;;;;0.10;0.00;;;;;;;18.47;100.00;100621.88;7392257;19;20010;-59
2022/07/21 11:05:33;;;;;;;0.63;0.20;;;;;;;18.53;100.00;100621.88;7393713;19;20342;-59
2022/07/21 11:08:21;;;;;;;2.08;0.10;;;;;;;18.65;100.00;100623.41;7389637;19;20006;-60
2022/07/21 11:10:50;;;;;;;0.98;0.20;;;;;;;18.82;100.00;100610.03;7391659;19;20022;-59
2022/07/21 11:13:19;;;;;;;0.17;0.13;;;;;;;18.90;100.00;100623.16;7394290;19;20010;-60
2022/07/21 11:15:51;;;;;;;0.40;0.10;;;;;;;18.99;100.00;100613.66;7392456;19;20006;-60
2022/07/21 11:18:19;;;;;;;0.47;0.20;;;;;;;19.07;100.00;100614.66;7393087;19;20480;-60
2022/07/21 11:21:09;;;;;;;1.35;0.10;;;;;;;19.14;100.00;100619.78;7392005;19;20486;-60